Terminal Aerodrome Forecast
Issued by NWS

Home | Current Version | Previous Version | Text Only | Print | Product List | Glossary On
Versions: 1 2 3 4 5 6 7 8 9 10 11 12 13 14
602
FTUS42 KMLB 261727
TAFLEE
TAF
KLEE 261727Z 2618/2718 32005KT P6SM VCTS SCT040CB BKN250
      TEMPO 2618/2620 3SM TSRA BKN030CB
     FM262000 32006KT P6SM VCTS BKN035CB
      TEMPO 2620/2623 2SM TSRA BKN025CB
     FM270000 VRB03KT P6SM VCSH SCT040 BKN070
     FM270600 19003KT P6SM FEW030 SCT080 BKN250
     FM271400 25005KT P6SM SCT035 BKN250=

USA.gov is the U.S. government's official web portal to all federal, state and local government web resources and services.